createdAt,value
2023-05-24T00:45:31.798Z,72.08
2023-05-24T00:50:38.457Z,72.21
2023-05-24T00:55:41.815Z,72.31
2023-05-24T01:00:49.909Z,72.50
2023-05-24T01:05:53.020Z,72.68
2023-05-24T01:11:04.827Z,72.93
2023-05-24T01:16:11.369Z,72.96
2023-05-24T01:21:48.852Z,72.92
2023-05-24T01:27:13.450Z,73.21
2023-05-24T01:32:19.192Z,73.31
2023-05-24T01:37:22.716Z,73.40
2023-05-24T01:43:16.757Z,73.20
2023-05-24T01:48:30.409Z,73.18
2023-05-24T01:53:39.870Z,73.23
2023-05-24T01:58:46.113Z,73.46
2023-05-24T02:03:51.342Z,73.68
2023-05-24T02:08:54.697Z,73.69
2023-05-24T02:13:57.794Z,73.63
2023-05-24T02:19:01.013Z,73.21
2023-05-24T02:24:04.657Z,73.31
2023-05-24T02:29:08.018Z,73.47
2023-05-24T02:34:15.961Z,73.72
2023-05-24T02:39:19.018Z,73.71
2023-05-24T02:44:22.085Z,73.81
2023-05-24T02:49:25.163Z,73.91
2023-05-24T02:54:28.212Z,73.96
2023-05-24T02:59:32.414Z,74.07
2023-05-24T03:04:36.260Z,74.24
2023-05-24T03:09:39.639Z,74.42
2023-05-24T03:14:42.912Z,74.41
2023-05-24T03:19:46.115Z,74.34
2023-05-24T03:24:49.331Z,74.26
2023-05-24T03:29:52.721Z,74.22
2023-05-24T03:34:59.648Z,74.42
2023-05-24T03:40:07.160Z,74.21
2023-05-24T03:45:39.109Z,73.87
2023-05-24T03:50:44.336Z,73.66
2023-05-24T03:55:47.908Z,73.35
2023-05-24T04:00:51.083Z,73.13
2023-05-24T04:05:55.112Z,73.04
2023-05-24T04:10:58.392Z,72.94
2023-05-24T04:16:01.742Z,72.73
2023-05-24T04:21:05.159Z,72.11
2023-05-24T04:26:10.399Z,71.85
2023-05-24T04:31:15.833Z,71.63
2023-05-24T04:36:19.451Z,71.49
2023-05-24T04:41:22.789Z,71.65
2023-05-24T04:46:27.451Z,71.31
2023-05-24T04:51:30.654Z,71.19
2023-05-24T04:56:33.692Z,71.05
2023-05-24T05:01:37.047Z,70.86
2023-05-24T05:06:40.743Z,71.03
2023-05-24T05:11:44.016Z,71.16
2023-05-24T05:16:47.301Z,71.22
2023-05-24T05:21:56.516Z,71.25
2023-05-24T05:26:59.585Z,71.35
2023-05-24T05:32:02.825Z,71.61
2023-05-24T05:37:06.133Z,71.67
2023-05-24T05:42:09.268Z,71.71
2023-05-24T05:47:12.498Z,71.96
2023-05-24T05:52:15.647Z,71.66
2023-05-24T05:57:24.520Z,71.60
2023-05-24T06:02:27.792Z,71.59
2023-05-24T06:07:31.272Z,71.39
2023-05-24T06:12:34.541Z,71.47
2023-05-24T06:17:37.953Z,71.43
2023-05-24T06:22:42.727Z,71.33
2023-05-24T06:27:45.979Z,71.16
2023-05-24T06:32:49.147Z,71.31
2023-05-24T06:37:52.603Z,71.33
2023-05-24T06:42:55.757Z,70.40
2023-05-24T06:47:59.070Z,70.00
2023-05-24T06:53:03.197Z,69.25
2023-05-24T06:58:07.236Z,68.96
2023-05-24T07:03:10.431Z,68.74
2023-05-24T07:08:13.584Z,68.46
2023-05-24T07:13:16.952Z,68.53
2023-05-24T07:18:20.136Z,68.42
2023-05-24T07:23:23.320Z,68.34
2023-05-24T07:28:27.316Z,68.28
2023-05-24T07:33:30.529Z,68.05
2023-05-24T07:38:35.090Z,68.25
2023-05-24T07:43:38.197Z,68.33
2023-05-24T07:48:41.541Z,68.74
2023-05-24T07:53:44.875Z,68.81
2023-05-24T07:58:49.336Z,68.64
2023-05-24T08:06:28.217Z,68.63
2023-05-24T08:11:31.438Z,68.67
2023-05-24T08:16:34.540Z,68.96
2023-05-24T08:21:37.943Z,68.65
2023-05-24T08:26:41.474Z,69.01
2023-05-24T08:31:45.021Z,69.62
2023-05-24T08:36:49.339Z,70.18
2023-05-24T08:42:08.610Z,70.92
2023-05-24T08:47:16.384Z,71.09
2023-05-24T08:52:21.316Z,71.26
2023-05-24T08:57:26.925Z,71.70
2023-05-24T09:02:30.499Z,72.16
2023-05-24T09:07:34.305Z,72.46
2023-05-24T09:12:39.604Z,72.72
2023-05-24T09:17:43.217Z,72.90
2023-05-24T09:22:51.116Z,72.88
2023-05-24T09:33:32.633Z,72.83
2023-05-24T09:38:36.799Z,72.80
2023-05-24T09:43:50.221Z,72.22
2023-05-24T09:49:00.184Z,71.81
2023-05-24T09:54:03.822Z,71.88
2023-05-24T09:59:08.771Z,71.70
2023-05-24T10:04:12.772Z,71.90
2023-05-24T10:09:16.314Z,72.56
2023-05-24T10:14:20.116Z,72.48
2023-05-24T10:19:23.620Z,72.42
2023-05-24T10:24:33.026Z,72.33
2023-05-24T10:33:32.657Z,72.32
2023-05-24T10:38:42.099Z,71.99
2023-05-24T10:44:00.891Z,71.76
2023-05-24T10:49:15.240Z,71.58
2023-05-24T10:54:20.213Z,71.57
2023-05-24T10:59:37.567Z,71.90
2023-05-24T11:04:46.616Z,71.83
2023-05-24T11:09:58.254Z,71.41
2023-05-24T11:15:03.129Z,71.13
2023-05-24T11:20:09.389Z,71.35
2023-05-24T11:25:13.035Z,71.40
2023-05-24T11:30:16.303Z,71.62
2023-05-24T11:35:20.296Z,71.76
2023-05-24T11:40:25.121Z,71.47
2023-05-24T11:45:29.613Z,71.13
2023-05-24T11:50:42.209Z,71.33
2023-05-24T11:55:54.585Z,70.87
2023-05-24T12:00:57.532Z,70.37
2023-05-24T12:06:00.673Z,70.30
2023-05-24T12:11:05.388Z,69.90
2023-05-24T12:16:13.200Z,69.38
2023-05-24T12:21:16.308Z,69.47
2023-05-24T12:26:22.805Z,69.33
2023-05-24T12:33:30.750Z,69.10
2023-05-24T12:38:33.874Z,68.82
2023-05-24T12:43:37.243Z,68.54
2023-05-24T12:48:40.452Z,68.48
2023-05-24T12:53:43.904Z,68.07
2023-05-24T12:58:47.554Z,67.78
2023-05-24T13:03:51.029Z,67.49
2023-05-24T13:08:54.267Z,67.49
2023-05-24T13:13:59.924Z,67.15
2023-05-24T13:19:03.302Z,67.00
2023-05-24T13:24:07.940Z,67.22
2023-05-24T13:34:18.663Z,67.31
2023-05-24T13:39:22.530Z,67.43
2023-05-24T13:44:25.762Z,66.63
2023-05-24T13:49:29.828Z,66.37
2023-05-24T13:54:33.340Z,66.18
2023-05-24T13:59:36.493Z,65.91
2023-05-24T14:04:39.614Z,65.66
2023-05-24T14:09:42.927Z,65.65
2023-05-24T14:20:00.085Z,65.86
2023-05-24T14:25:03.681Z,65.40
2023-05-24T14:30:08.406Z,65.28
2023-05-24T14:35:11.652Z,65.26
2023-05-24T14:40:16.954Z,65.24
2023-05-24T14:45:21.796Z,65.37
2023-05-24T14:50:24.844Z,65.13
2023-05-24T14:55:27.952Z,65.17
2023-05-24T15:00:31.128Z,64.91
2023-05-24T15:05:35.301Z,64.57
2023-05-24T15:10:41.383Z,64.46
2023-05-24T15:15:44.739Z,64.60
2023-05-24T15:20:48.747Z,64.65
2023-05-24T15:25:52.377Z,64.69
2023-05-24T15:36:32.768Z,64.64
2023-05-24T15:41:37.658Z,64.63
2023-05-24T15:46:41.474Z,64.43
2023-05-24T15:57:04.182Z,63.93
2023-05-24T16:02:08.553Z,64.05
2023-05-24T16:07:11.700Z,64.10
2023-05-24T16:12:14.897Z,64.11
2023-05-24T16:17:18.312Z,64.15
2023-05-24T16:22:21.447Z,63.93
2023-05-24T16:27:24.563Z,63.91
2023-05-24T16:38:08.115Z,63.88
2023-05-24T16:43:11.323Z,63.78
2023-05-24T16:48:14.929Z,63.79
2023-05-24T16:53:18.368Z,63.88
2023-05-24T16:58:22.612Z,64.06
2023-05-24T17:03:30.358Z,64.01
2023-05-24T17:08:35.725Z,63.76
2023-05-24T17:13:38.935Z,63.83
2023-05-24T17:18:42.352Z,64.02
2023-05-24T17:23:45.612Z,64.25
2023-05-24T17:28:48.851Z,64.55
2023-05-24T17:33:52.038Z,64.95
2023-05-24T17:38:55.215Z,65.32
2023-05-24T17:43:59.147Z,64.71
2023-05-24T17:49:02.978Z,64.68
2023-05-24T17:54:06.521Z,64.44
2023-05-24T17:59:10.210Z,64.33
2023-05-24T18:04:13.439Z,64.48
2023-05-24T18:09:17.084Z,64.53
2023-05-24T18:33:36.686Z,64.57
2023-05-24T18:38:40.310Z,64.49
2023-05-24T18:43:43.542Z,64.69
2023-05-24T18:48:47.556Z,64.96
2023-05-24T18:53:51.891Z,65.10
2023-05-24T18:59:00.598Z,65.10
2023-05-24T19:04:04.168Z,65.36
2023-05-24T19:09:07.322Z,65.19
2023-05-24T19:14:13.924Z,65.26
2023-05-24T19:19:17.134Z,65.48
2023-05-24T19:24:21.459Z,65.46
2023-05-24T19:35:02.283Z,64.88
2023-05-24T19:40:07.163Z,64.23
2023-05-24T19:45:10.626Z,63.96
2023-05-24T19:50:13.797Z,63.84
2023-05-24T19:55:16.915Z,64.02
2023-05-24T20:00:20.033Z,63.97
2023-05-24T20:05:23.462Z,64.00
2023-05-24T20:10:28.763Z,64.28
2023-05-24T20:15:31.936Z,64.68
2023-05-24T20:20:35.619Z,64.77
2023-05-24T20:25:38.793Z,64.39
2023-05-24T20:30:45.858Z,64.27
2023-05-24T20:35:50.050Z,64.36
2023-05-24T20:40:53.323Z,64.11
2023-05-24T22:45:33.273Z,64.39
2023-05-24T22:50:49.080Z,64.38
2023-05-24T22:55:52.369Z,64.49
2023-05-24T23:00:55.454Z,64.84
2023-05-24T23:06:04.510Z,64.82
2023-05-24T23:11:10.718Z,64.90
2023-05-24T23:34:27.840Z,65.18
2023-05-24T23:39:31.076Z,65.19
2023-05-24T23:44:34.258Z,65.15
2023-05-24T23:49:37.525Z,65.26
2023-05-24T23:54:40.721Z,65.49
2023-05-24T23:59:43.967Z,65.68
